Time;durP1;ratioP1;P1;durP2;ratioP2;P2;SDS_P1;SDS_P2;PMS_P1;PMS_P2;Temp;Humidity;BMP_temperature;BMP_pressure;BME280_temperature;BME280_humidity;BME280_pressure;Samples;Min_cycle;Max_cycle;Signal;HPM_P1;HPM_P2
2020/12/16 00:02:13;;;;;;;1.80;1.57;;;8.90;99.90;;;;;;5056420;28;20729;-79
2020/12/16 00:04:39;;;;;;;0.57;0.57;;;8.90;99.90;;;;;;5037185;28;20278;-77
2020/12/16 00:07:04;;;;;;;0.87;0.87;;;8.90;99.90;;;;;;5036781;28;20639;-77
2020/12/16 00:09:30;;;;;;;0.60;0.20;;;8.90;99.90;;;;;;5037237;28;20167;-77
2020/12/16 00:11:55;;;;;;;0.30;0.30;;;8.80;99.90;;;;;;5054822;28;20182;-79
2020/12/16 00:14:21;;;;;;;0.40;0.40;;;8.70;99.90;;;;;;5038486;28;20209;-79
2020/12/16 00:16:46;;;;;;;0.30;0.23;;;8.60;99.90;;;;;;5056164;28;20168;-79
2020/12/16 00:19:12;;;;;;;0.80;0.50;;;8.50;99.90;;;;;;5059472;28;20175;-79
2020/12/16 00:21:37;;;;;;;1.33;1.23;;;8.40;99.90;;;;;;5060514;28;20167;-79
2020/12/16 00:24:03;;;;;;;1.83;1.70;;;8.30;99.90;;;;;;5041984;28;20388;-79
2020/12/16 00:26:28;;;;;;;0.87;0.70;;;8.30;99.90;;;;;;5041701;28;20194;-79
2020/12/16 00:28:54;;;;;;;0.33;0.33;;;8.30;99.90;;;;;;5059205;28;20636;-77
2020/12/16 00:31:19;;;;;;;1.50;0.93;;;8.30;99.90;;;;;;5058287;28;20213;-77
2020/12/16 00:33:45;;;;;;;0.70;0.70;;;8.30;99.90;;;;;;5058600;28;20241;-77
2020/12/16 00:36:10;;;;;;;0.93;0.93;;;8.30;99.90;;;;;;5058855;28;20168;-77
2020/12/16 00:38:36;;;;;;;0.80;0.80;;;8.20;99.90;;;;;;5058769;28;20639;-77
2020/12/16 00:41:02;;;;;;;1.63;1.00;;;8.20;99.90;;;;;;5040626;28;20543;-78
2020/12/16 00:43:27;;;;;;;0.20;0.20;;;8.30;99.90;;;;;;5040020;28;20206;-77
2020/12/16 00:45:53;;;;;;;1.63;1.60;;;8.30;99.90;;;;;;5040494;28;20168;-77
2020/12/16 00:48:18;;;;;;;0.73;0.23;;;8.40;99.90;;;;;;5058350;28;20583;-77
2020/12/16 00:50:44;;;;;;;1.50;0.63;;;8.40;99.90;;;;;;5058194;28;20178;-79
2020/12/16 00:53:09;;;;;;;0.80;0.80;;;8.40;99.90;;;;;;5059447;28;20214;-79
2020/12/16 00:55:35;;;;;;;1.10;0.97;;;8.40;99.90;;;;;;5059980;28;20163;-79
2020/12/16 00:58:00;;;;;;;0.67;0.67;;;8.30;99.90;;;;;;5042061;28;20209;-79
2020/12/16 01:00:26;;;;;;;0.93;0.93;;;8.20;99.90;;;;;;5060220;28;20247;-79
2020/12/16 01:02:52;;;;;;;1.50;0.93;;;8.00;99.90;;;;;;5041877;28;20203;-79
2020/12/16 01:05:19;;;;;;;0.57;0.57;;;7.80;99.90;;;;;;5041475;28;20600;-79
2020/12/16 01:07:45;;;;;;;0.60;0.30;;;7.70;99.90;;;;;;5059945;28;20175;-79
2020/12/16 01:10:12;;;;;;;0.90;0.87;;;7.80;99.90;;;;;;5041539;28;20174;-79
2020/12/16 01:12:42;;;;;;;1.50;1.30;;;7.90;99.90;;;;;;5059151;28;20735;-79
2020/12/16 01:15:10;;;;;;;0.80;0.27;;;7.90;99.90;;;;;;5040489;28;20211;-81
2020/12/16 01:17:40;;;;;;;1.53;1.47;;;7.70;99.90;;;;;;5055943;28;20175;-80
2020/12/16 01:20:07;;;;;;;0.60;0.60;;;7.70;99.90;;;;;;5055730;28;20642;-81
2020/12/16 01:22:35;;;;;;;0.70;0.70;;;7.70;99.90;;;;;;5055604;28;20245;-81
2020/12/16 01:25:01;;;;;;;0.20;0.20;;;7.60;99.90;;;;;;5055532;28;20199;-81
2020/12/16 01:27:26;;;;;;;1.33;0.63;;;7.50;99.90;;;;;;5037790;28;20217;-81
2020/12/16 01:29:52;;;;;;;0.50;0.50;;;7.40;99.90;;;;;;5055250;28;20504;-81
2020/12/16 01:32:17;;;;;;;0.30;0.30;;;7.40;99.90;;;;;;5037535;28;20199;-81
2020/12/16 01:34:43;;;;;;;0.37;0.37;;;7.50;99.90;;;;;;5037630;28;20178;-81
2020/12/16 01:37:08;;;;;;;0.53;0.53;;;7.60;99.90;;;;;;5055499;28;20572;-81
2020/12/16 01:39:34;;;;;;;0.60;0.60;;;7.60;99.90;;;;;;5057254;28;20176;-80
2020/12/16 01:41:59;;;;;;;0.40;0.40;;;7.70;99.90;;;;;;5059714;28;20175;-79
2020/12/16 01:44:28;;;;;;;1.07;1.07;;;7.80;99.90;;;;;;5059793;28;20240;-79
2020/12/16 01:46:56;;;;;;;0.20;0.20;;;7.80;99.90;;;;;;5058935;28;20159;-79
2020/12/16 01:49:22;;;;;;;0.77;0.77;;;7.80;99.90;;;;;;5041300;28;20172;-79
2020/12/16 01:51:52;;;;;;;0.87;0.87;;;7.90;99.90;;;;;;5040434;28;20172;-77
2020/12/16 01:54:19;;;;;;;1.13;1.03;;;8.00;99.90;;;;;;5057327;28;20167;-79
2020/12/16 01:56:49;;;;;;;0.40;0.30;;;8.00;99.90;;;;;;5057306;28;20265;-77
2020/12/16 01:59:16;;;;;;;0.97;0.93;;;7.90;99.90;;;;;;5057509;28;20179;-79
2020/12/16 02:01:43;;;;;;;1.13;0.97;;;7.90;99.90;;;;;;5040450;28;20200;-79
2020/12/16 02:04:12;;;;;;;1.20;0.90;;;7.90;99.90;;;;;;5058948;28;20241;-79
2020/12/16 02:06:40;;;;;;;0.40;0.40;;;7.90;99.90;;;;;;5058625;28;20171;-79
2020/12/16 02:09:10;;;;;;;0.37;0.37;;;7.90;99.90;;;;;;5058373;28;20539;-79
2020/12/16 02:11:38;;;;;;;0.40;0.40;;;7.90;99.90;;;;;;5057740;28;20199;-79
2020/12/16 02:14:04;;;;;;;1.40;1.30;;;8.00;99.90;;;;;;5057498;28;20225;-79
2020/12/16 02:16:30;;;;;;;1.40;1.30;;;8.00;99.90;;;;;;5058310;28;20164;-80
2020/12/16 02:18:55;;;;;;;1.93;1.83;;;8.00;99.90;;;;;;5054788;28;20170;-81
2020/12/16 02:21:21;;;;;;;1.60;1.53;;;8.00;99.90;;;;;;5054435;28;20531;-81
2020/12/16 02:23:49;;;;;;;1.93;1.77;;;8.00;99.90;;;;;;5036455;28;20202;-81
2020/12/16 02:26:15;;;;;;;1.50;1.37;;;7.90;99.90;;;;;;5036479;28;20201;-81
2020/12/16 02:28:42;;;;;;;1.70;1.03;;;7.90;99.90;;;;;;5054220;28;20191;-81
2020/12/16 02:31:10;;;;;;;2.07;1.43;;;7.80;99.90;;;;;;5036376;28;20702;-81
2020/12/16 02:33:35;;;;;;;1.70;1.33;;;7.80;99.90;;;;;;5054165;28;20677;-81
2020/12/16 02:36:01;;;;;;;4.10;2.00;;;7.80;99.90;;;;;;5054133;28;20168;-81
2020/12/16 02:38:26;;;;;;;1.60;1.13;;;7.80;99.90;;;;;;5054421;28;20163;-81
2020/12/16 02:40:52;;;;;;;0.73;0.73;;;7.90;99.90;;;;;;5036829;28;20563;-81
2020/12/16 02:43:17;;;;;;;0.77;0.77;;;8.00;99.90;;;;;;5055083;28;20274;-79
2020/12/16 02:45:43;;;;;;;1.17;1.17;;;8.00;99.90;;;;;;5057425;28;20199;-79
2020/12/16 02:48:08;;;;;;;0.50;0.50;;;8.00;99.90;;;;;;5057932;28;20246;-79
2020/12/16 02:50:34;;;;;;;0.70;0.70;;;8.00;99.90;;;;;;5039112;28;20175;-77
2020/12/16 02:52:59;;;;;;;2.27;2.10;;;7.90;99.90;;;;;;5056235;28;20223;-79
2020/12/16 02:55:25;;;;;;;0.87;0.87;;;7.90;99.90;;;;;;5057504;28;20205;-79
2020/12/16 02:57:50;;;;;;;0.30;0.30;;;7.80;99.90;;;;;;5039446;28;20697;-79
2020/12/16 03:00:16;;;;;;;0.97;0.87;;;7.80;99.90;;;;;;5039624;28;20174;-79
2020/12/16 03:02:42;;;;;;;0.40;0.40;;;7.70;99.90;;;;;;5058160;28;20203;-79
2020/12/16 03:05:07;;;;;;;1.00;0.90;;;7.70;99.90;;;;;;5039418;28;20671;-79
2020/12/16 03:07:34;;;;;;;0.60;0.60;;;7.60;99.90;;;;;;5057547;28;20179;-79
2020/12/16 03:10:00;;;;;;;1.00;0.83;;;7.60;99.90;;;;;;5057909;28;20159;-79
2020/12/16 03:12:27;;;;;;;0.57;0.57;;;7.60;99.90;;;;;;5057339;28;20211;-79
2020/12/16 03:14:53;;;;;;;0.67;0.63;;;7.60;99.90;;;;;;5057523;28;20182;-79
2020/12/16 03:17:18;;;;;;;1.43;1.33;;;7.70;99.90;;;;;;5057332;28;20769;-80
2020/12/16 03:19:44;;;;;;;0.73;0.73;;;7.70;99.90;;;;;;5039542;28;20182;-79
2020/12/16 03:22:09;;;;;;;0.67;0.63;;;7.70;99.90;;;;;;5057400;28;20230;-79
2020/12/16 03:24:35;;;;;;;1.13;1.03;;;7.70;99.90;;;;;;5056609;28;20194;-79
2020/12/16 03:27:01;;;;;;;0.77;0.63;;;7.80;99.90;;;;;;5039689;28;20197;-79
2020/12/16 03:29:27;;;;;;;0.73;0.73;;;7.70;99.90;;;;;;5058087;28;20182;-79
2020/12/16 03:31:52;;;;;;;0.97;0.87;;;7.60;99.90;;;;;;5055953;28;20179;-79
2020/12/16 03:34:18;;;;;;;1.20;1.10;;;7.30;99.90;;;;;;5037895;28;20183;-81
2020/12/16 03:36:44;;;;;;;0.30;0.30;;;7.20;99.90;;;;;;5053422;28;20755;-81
2020/12/16 03:39:09;;;;;;;1.43;1.27;;;7.20;99.90;;;;;;5053310;28;20164;-81
2020/12/16 03:41:34;;;;;;;0.47;0.47;;;7.10;99.90;;;;;;5053795;28;20177;-81
2020/12/16 03:44:00;;;;;;;0.77;0.77;;;7.10;99.90;;;;;;5035349;28;20212;-81
2020/12/16 03:46:26;;;;;;;0.83;0.67;;;7.00;99.90;;;;;;5035413;28;20203;-81
2020/12/16 03:48:51;;;;;;;0.50;0.50;;;7.00;99.90;;;;;;5053755;28;20164;-81
2020/12/16 03:51:17;;;;;;;0.87;0.80;;;6.90;99.90;;;;;;5053157;28;20166;-81
2020/12/16 03:53:43;;;;;;;0.40;0.40;;;7.00;99.90;;;;;;5056586;28;20273;-81
2020/12/16 03:56:10;;;;;;;0.33;0.33;;;7.00;99.90;;;;;;5039333;28;20186;-81
2020/12/16 03:58:39;;;;;;;0.73;0.20;;;7.00;99.90;;;;;;5039386;28;20173;-81
2020/12/16 04:01:06;;;;;;;0.80;0.80;;;7.10;99.90;;;;;;5057106;28;20657;-81
2020/12/16 04:03:32;;;;;;;0.37;0.37;;;7.10;99.90;;;;;;5057618;28;20282;-81
2020/12/16 04:05:58;;;;;;;1.00;0.50;;;7.20;99.90;;;;;;5039169;28;20173;-81
2020/12/16 04:08:23;;;;;;;5.00;2.07;;;7.20;99.90;;;;;;5039122;28;20269;-81
2020/12/16 04:10:49;;;;;;;0.83;0.83;;;7.10;99.90;;;;;;5039000;28;20172;-81
2020/12/16 04:13:15;;;;;;;1.73;1.63;;;7.10;99.90;;;;;;5056713;28;20251;-81
2020/12/16 04:15:42;;;;;;;1.00;0.80;;;7.20;99.90;;;;;;5039049;28;20170;-81
2020/12/16 04:18:08;;;;;;;0.67;0.67;;;7.30;99.90;;;;;;5038888;28;20178;-81
2020/12/16 04:20:34;;;;;;;0.53;0.53;;;7.40;99.90;;;;;;5038847;28;20271;-81
2020/12/16 04:23:00;;;;;;;0.70;0.70;;;7.40;99.90;;;;;;5056812;28;20189;-79
2020/12/16 04:25:25;;;;;;;0.70;0.70;;;7.40;99.90;;;;;;5057103;28;20551;-79
2020/12/16 04:27:51;;;;;;;0.80;0.80;;;7.40;99.90;;;;;;5057110;28;20232;-79
2020/12/16 04:30:17;;;;;;;1.40;0.93;;;7.50;99.90;;;;;;5056963;28;20566;-79
2020/12/16 04:32:43;;;;;;;0.63;0.63;;;7.40;99.90;;;;;;5056889;28;20699;-79
2020/12/16 04:35:09;;;;;;;0.50;0.50;;;7.40;99.90;;;;;;5057347;28;20210;-79
2020/12/16 04:37:34;;;;;;;1.30;0.97;;;7.40;99.90;;;;;;5056586;28;20190;-79
2020/12/16 04:40:00;;;;;;;1.60;1.50;;;7.30;99.90;;;;;;5038675;28;20171;-79
2020/12/16 04:42:25;;;;;;;2.53;1.07;;;7.40;99.90;;;;;;5056559;28;20191;-81
2020/12/16 04:44:51;;;;;;;1.30;1.20;;;7.30;99.90;;;;;;5056324;28;20204;-81
2020/12/16 04:47:16;;;;;;;1.00;0.93;;;7.20;99.90;;;;;;5038531;28;20202;-81
2020/12/16 04:49:42;;;;;;;1.17;1.17;;;7.00;99.90;;;;;;5056580;28;20527;-81
2020/12/16 04:52:09;;;;;;;1.67;1.53;;;7.00;99.90;;;;;;5038337;28;20186;-81
2020/12/16 04:54:36;;;;;;;0.77;0.77;;;7.00;99.90;;;;;;5056453;28;20189;-81
2020/12/16 04:57:06;;;;;;;1.43;1.37;;;7.00;99.90;;;;;;5038237;28;20361;-81
2020/12/16 04:59:32;;;;;;;2.53;1.33;;;7.00;99.90;;;;;;5038238;28;20543;-81
2020/12/16 05:01:57;;;;;;;0.70;0.50;;;7.10;99.90;;;;;;5038104;28;20181;-81
2020/12/16 05:04:23;;;;;;;0.60;0.60;;;7.00;99.90;;;;;;5037977;28;20543;-81
2020/12/16 05:06:48;;;;;;;0.53;0.53;;;7.00;99.90;;;;;;5056276;28;20169;-81
2020/12/16 05:09:16;;;;;;;0.90;0.83;;;6.90;99.90;;;;;;5038015;28;20174;-81
2020/12/16 05:11:49;;;;;;;0.77;0.47;;;6.80;99.90;;;;;;5037918;28;20172;-81
2020/12/16 05:14:17;;;;;;;0.50;0.50;;;6.80;99.90;;;;;;5055911;28;20625;-81
2020/12/16 05:16:56;;;;;;;0.83;0.63;;;6.70;99.90;;;;;;5037916;28;20327;-81
2020/12/16 05:19:31;;;;;;;0.33;0.33;;;6.70;99.90;;;;;;5038016;28;20170;-79
2020/12/16 05:22:14;;;;;;;0.30;0.30;;;6.70;99.90;;;;;;5057150;28;20164;-79
2020/12/16 05:24:40;;;;;;;0.50;0.50;;;6.80;99.90;;;;;;5037594;28;20203;-80
2020/12/16 05:27:13;;;;;;;0.27;0.27;;;6.80;99.90;;;;;;5055687;28;20546;-78
2020/12/16 05:29:39;;;;;;;0.23;0.20;;;6.70;99.90;;;;;;5037647;28;20229;-78
2020/12/16 05:32:34;;;;;;;2.00;0.80;;;6.80;99.90;;;;;;5056094;28;20712;-76
2020/12/16 05:35:18;;;;;;;0.10;0.10;;;6.70;99.90;;;;;;5039415;28;20185;-78
2020/12/16 05:37:44;;;;;;;1.20;1.07;;;6.70;99.90;;;;;;5056352;28;20193;-77
2020/12/16 05:40:16;;;;;;;0.53;0.53;;;6.80;99.90;;;;;;5056361;28;20164;-78
2020/12/16 05:42:42;;;;;;;0.87;0.87;;;6.80;99.90;;;;;;5046482;28;20199;-79
2020/12/16 05:45:13;;;;;;;0.43;0.43;;;6.90;99.90;;;;;;5064937;28;20521;-78
2020/12/16 05:47:41;;;;;;;0.23;0.23;;;6.90;99.90;;;;;;5038190;28;20203;-82
2020/12/16 05:50:16;;;;;;;1.30;1.03;;;6.90;99.90;;;;;;5040445;28;20169;-80
2020/12/16 05:52:42;;;;;;;0.57;0.57;;;6.70;99.90;;;;;;5041041;28;20218;-79
2020/12/16 05:55:07;;;;;;;1.50;1.00;;;6.70;99.90;;;;;;5037478;28;20169;-79
2020/12/16 05:57:33;;;;;;;0.53;0.53;;;6.60;99.90;;;;;;5055510;28;20234;-80
2020/12/16 06:00:11;;;;;;;0.07;0.07;;;6.60;99.90;;;;;;5055136;28;20194;-81
2020/12/16 06:02:41;;;;;;;1.10;0.83;;;6.50;99.90;;;;;;5037226;28;20189;-80
2020/12/16 06:05:12;;;;;;;1.00;0.83;;;6.50;99.90;;;;;;5036903;28;20710;-81
2020/12/16 06:07:40;;;;;;;2.33;1.77;;;6.40;99.90;;;;;;5054817;28;20590;-80
2020/12/16 06:10:07;;;;;;;0.53;0.53;;;6.30;99.90;;;;;;5036891;28;20197;-81
2020/12/16 06:12:36;;;;;;;0.57;0.57;;;6.30;99.90;;;;;;5054629;28;20201;-80
2020/12/16 06:15:08;;;;;;;0.47;0.43;;;6.30;99.90;;;;;;5054030;28;20176;-81
2020/12/16 06:17:37;;;;;;;0.43;0.43;;;6.30;99.90;;;;;;5036857;28;20700;-80
2020/12/16 06:20:04;;;;;;;0.20;0.20;;;6.30;99.90;;;;;;5036728;28;20178;-80
2020/12/16 06:22:33;;;;;;;0.47;0.47;;;6.20;99.90;;;;;;5054405;28;20210;-81
2020/12/16 06:25:01;;;;;;;0.50;0.50;;;6.30;99.90;;;;;;5054320;28;20194;-80
2020/12/16 06:27:36;;;;;;;0.57;0.57;;;6.30;99.90;;;;;;5054683;28;20190;-80
2020/12/16 06:30:02;;;;;;;0.47;0.47;;;6.40;99.90;;;;;;5036861;28;20160;-78
2020/12/16 06:32:37;;;;;;;1.03;0.70;;;6.40;99.90;;;;;;5036746;28;20246;-78
2020/12/16 06:35:03;;;;;;;0.53;0.53;;;6.30;99.90;;;;;;5054525;28;20159;-78
2020/12/16 06:37:29;;;;;;;0.73;0.73;;;6.40;99.90;;;;;;5054447;28;20225;-78
2020/12/16 06:39:55;;;;;;;0.50;0.40;;;6.30;99.90;;;;;;5036942;28;20165;-78
2020/12/16 06:42:33;;;;;;;0.63;0.63;;;6.20;99.90;;;;;;5054380;28;20199;-80
2020/12/16 06:45:31;;;;;;;0.67;0.63;;;6.10;99.90;;;;;;5054042;28;20203;-80
2020/12/16 06:47:57;;;;;;;0.20;0.20;;;6.10;99.90;;;;;;5021343;28;20214;-80
2020/12/16 06:50:22;;;;;;;0.80;0.80;;;6.10;99.90;;;;;;5053992;28;20160;-81
2020/12/16 06:52:49;;;;;;;0.30;0.30;;;6.20;99.90;;;;;;5036031;28;20183;-81
2020/12/16 06:55:15;;;;;;;0.50;0.50;;;6.30;99.90;;;;;;5053946;28;20643;-81
2020/12/16 06:57:48;;;;;;;0.33;0.33;;;6.30;99.90;;;;;;5054098;28;20176;-81
2020/12/16 07:00:20;;;;;;;0.77;0.77;;;6.50;99.90;;;;;;5035976;28;20530;-80
2020/12/16 07:02:46;;;;;;;0.80;0.80;;;6.40;99.90;;;;;;5053949;28;20229;-80
2020/12/16 07:05:37;;;;;;;0.87;0.87;;;6.20;99.90;;;;;;5035810;28;20660;-80
2020/12/16 07:08:04;;;;;;;0.60;0.60;;;5.90;99.90;;;;;;5035891;28;20168;-80
2020/12/16 07:10:41;;;;;;;0.17;0.17;;;5.80;99.90;;;;;;5035837;28;20167;-81
2020/12/16 07:13:17;;;;;;;0.83;0.83;;;5.80;99.90;;;;;;5053448;28;20298;-81
2020/12/16 07:16:10;;;;;;;0.97;0.97;;;5.70;99.90;;;;;;5039244;28;20166;-79
2020/12/16 07:18:39;;;;;;;0.23;0.23;;;5.70;99.90;;;;;;5031376;28;20171;-80
2020/12/16 07:21:07;;;;;;;0.40;0.40;;;5.70;99.90;;;;;;5057707;28;20172;-79
2020/12/16 07:23:57;;;;;;;0.50;0.50;;;5.60;99.90;;;;;;5057386;28;20184;-79
2020/12/16 07:26:32;;;;;;;0.40;0.40;;;5.70;99.90;;;;;;5041753;28;20167;-80
2020/12/16 07:28:59;;;;;;;0.97;0.93;;;5.90;99.90;;;;;;5058101;28;20156;-79
2020/12/16 07:31:26;;;;;;;0.27;0.27;;;5.90;99.90;;;;;;5036379;28;20658;-82
2020/12/16 07:33:53;;;;;;;0.50;0.20;;;6.00;99.90;;;;;;5035577;28;20713;-81
2020/12/16 07:36:20;;;;;;;0.97;0.93;;;6.20;99.90;;;;;;5053646;28;20185;-82
2020/12/16 07:38:51;;;;;;;0.47;0.47;;;6.30;99.90;;;;;;5053258;28;20203;-84
2020/12/16 07:41:29;;;;;;;2.30;1.90;;;6.30;99.90;;;;;;5053125;28;20168;-80
2020/12/16 07:43:58;;;;;;;0.90;0.87;;;6.40;99.90;;;;;;5035606;28;20207;-79
2020/12/16 07:46:24;;;;;;;2.20;1.33;;;6.40;99.90;;;;;;5035653;28;20544;-78
2020/12/16 07:48:50;;;;;;;1.40;1.30;;;6.40;99.90;;;;;;5036342;28;20180;-79
2020/12/16 07:51:18;;;;;;;0.43;0.43;;;6.50;99.90;;;;;;5053845;28;20235;-80
2020/12/16 07:53:49;;;;;;;0.60;0.60;;;6.50;99.90;;;;;;5053202;28;20248;-79
2020/12/16 07:56:17;;;;;;;0.93;0.93;;;6.50;99.90;;;;;;5035685;28;20182;-79
2020/12/16 07:58:43;;;;;;;0.70;0.70;;;6.50;99.90;;;;;;5053199;28;20175;-79
2020/12/16 08:01:16;;;;;;;0.77;0.77;;;6.50;99.90;;;;;;5035287;28;20179;-82
2020/12/16 08:03:42;;;;;;;1.63;1.53;;;6.60;99.90;;;;;;5035143;28;20208;-79
2020/12/16 08:06:09;;;;;;;1.03;1.03;;;6.80;99.90;;;;;;5035207;28;20622;-79
2020/12/16 08:08:51;;;;;;;0.80;0.60;;;6.80;99.90;;;;;;5053180;28;20169;-80
2020/12/16 08:11:21;;;;;;;0.87;0.87;;;6.90;99.90;;;;;;5053665;28;20152;-80
2020/12/16 08:13:48;;;;;;;0.93;0.93;;;7.00;99.90;;;;;;5053148;28;20305;-79
2020/12/16 08:16:14;;;;;;;0.97;0.97;;;7.10;99.90;;;;;;5035770;28;20178;-80
2020/12/16 08:18:47;;;;;;;1.53;1.43;;;7.20;99.90;;;;;;5053802;28;20180;-79
2020/12/16 08:21:31;;;;;;;2.33;1.97;;;7.20;99.90;;;;;;5035123;28;20172;-81
2020/12/16 08:23:57;;;;;;;1.00;1.00;;;7.30;99.90;;;;;;5034992;28;20206;-79
2020/12/16 08:26:25;;;;;;;3.33;1.93;;;7.30;99.90;;;;;;5035251;28;20582;-78
2020/12/16 08:28:51;;;;;;;1.80;1.70;;;7.40;99.90;;;;;;5035196;28;20172;-80
2020/12/16 08:31:22;;;;;;;2.33;1.50;;;7.50;99.90;;;;;;5035131;28;20548;-82
2020/12/16 08:33:49;;;;;;;2.20;1.70;;;7.60;99.90;;;;;;5052614;28;20191;-83
2020/12/16 08:36:21;;;;;;;1.20;0.80;;;7.60;99.90;;;;;;5052713;28;20178;-81
2020/12/16 08:38:49;;;;;;;2.10;2.00;;;7.70;99.90;;;;;;5054396;28;20554;-81
2020/12/16 08:41:26;;;;;;;0.83;0.83;;;7.80;99.90;;;;;;5038201;28;20186;-83
2020/12/16 08:43:53;;;;;;;2.50;1.83;;;7.90;99.90;;;;;;5057251;28;20206;-78
2020/12/16 08:46:23;;;;;;;3.87;2.93;;;8.00;99.90;;;;;;5039348;28;20584;-78
2020/12/16 08:49:01;;;;;;;1.97;1.80;;;8.10;99.90;;;;;;5056544;28;20166;-83
2020/12/16 08:51:38;;;;;;;4.33;2.13;;;8.10;99.90;;;;;;5038326;28;20163;-82
2020/12/16 08:54:11;;;;;;;1.93;1.30;;;8.20;99.90;;;;;;5038272;28;20226;-81
2020/12/16 08:56:43;;;;;;;1.67;1.57;;;8.30;99.90;;;;;;5038195;28;20182;-82
2020/12/16 08:59:16;;;;;;;1.20;1.13;;;8.30;99.90;;;;;;5038120;28;20233;-82
2020/12/16 09:01:44;;;;;;;0.83;0.83;;;8.30;99.90;;;;;;5055883;28;20170;-82
2020/12/16 09:04:20;;;;;;;1.37;1.30;;;8.40;99.90;;;;;;5038043;28;20235;-82
2020/12/16 09:07:17;;;;;;;2.17;0.90;;;8.40;99.90;;;;;;5038078;28;20212;-82
2020/12/16 09:09:54;;;;;;;2.57;1.57;;;8.40;99.90;;;;;;5021757;28;20179;-82
2020/12/16 09:12:21;;;;;;;1.77;1.50;;;8.50;99.90;;;;;;5055675;28;20205;-82
2020/12/16 09:14:54;;;;;;;1.70;1.60;;;8.50;99.90;;;;;;5055647;28;20174;-82
2020/12/16 09:17:24;;;;;;;2.10;2.00;;;8.50;99.90;;;;;;5037748;28;20198;-82
2020/12/16 09:19:50;;;;;;;1.70;1.60;;;8.50;99.90;;;;;;5055696;28;20175;-82
2020/12/16 09:22:21;;;;;;;1.97;1.83;;;8.50;99.90;;;;;;5037717;28;20191;-82
2020/12/16 09:24:47;;;;;;;2.23;2.13;;;8.60;99.90;;;;;;5037686;28;20274;-82
2020/12/16 09:27:13;;;;;;;1.10;1.00;;;8.60;99.90;;;;;;5037732;28;20600;-82
2020/12/16 09:29:47;;;;;;;2.17;1.20;;;8.60;99.90;;;;;;5037566;28;20222;-82
2020/12/16 09:32:20;;;;;;;2.03;1.53;;;8.60;99.90;;;;;;5038367;28;20193;-80
2020/12/16 09:34:50;;;;;;;2.87;1.70;;;8.70;99.90;;;;;;5037751;28;20159;-79
2020/12/16 09:37:32;;;;;;;0.63;0.63;;;8.70;99.90;;;;;;5055668;28;20663;-80
2020/12/16 09:40:07;;;;;;;1.20;1.10;;;8.80;99.90;;;;;;5055393;28;20147;-77
2020/12/16 09:42:32;;;;;;;1.23;1.13;;;8.80;99.90;;;;;;5055447;28;20598;-77
2020/12/16 09:45:09;;;;;;;1.67;1.57;;;8.80;99.90;;;;;;5055395;28;20199;-77
2020/12/16 09:47:42;;;;;;;1.77;1.67;;;8.90;99.90;;;;;;5037262;28;20175;-78
2020/12/16 09:50:08;;;;;;;1.73;1.60;;;8.90;99.90;;;;;;5055081;28;20152;-79
2020/12/16 09:52:37;;;;;;;2.17;1.03;;;8.90;99.90;;;;;;5055569;28;20199;-81
2020/12/16 09:55:15;;;;;;;1.77;1.67;;;9.00;99.90;;;;;;5037117;28;20160;-81
2020/12/16 09:57:41;;;;;;;1.03;1.03;;;9.00;99.90;;;;;;5055011;28;20643;-80
2020/12/16 10:00:08;;;;;;;1.97;1.77;;;9.00;99.90;;;;;;5054964;28;20632;-81
2020/12/16 10:02:33;;;;;;;1.37;1.27;;;9.10;99.90;;;;;;5054984;28;20195;-81
2020/12/16 10:04:59;;;;;;;3.23;3.03;;;9.10;99.90;;;;;;5054967;28;20571;-82
2020/12/16 10:07:24;;;;;;;0.77;0.77;;;9.10;99.90;;;;;;5036948;28;20175;-82
2020/12/16 10:09:54;;;;;;;2.03;1.93;;;9.20;99.90;;;;;;5036838;28;20172;-82
2020/12/16 10:12:21;;;;;;;1.53;1.40;;;9.20;99.90;;;;;;5036641;28;20206;-82
2020/12/16 10:14:46;;;;;;;3.03;2.67;;;9.30;99.90;;;;;;5054700;28;20509;-82
2020/12/16 10:17:12;;;;;;;1.43;1.33;;;9.30;99.90;;;;;;5054858;28;20174;-81
2020/12/16 10:19:37;;;;;;;2.13;1.77;;;9.30;99.90;;;;;;5036636;28;20175;-82
2020/12/16 10:22:03;;;;;;;3.10;2.90;;;9.40;99.90;;;;;;5036609;28;20191;-83
2020/12/16 10:24:28;;;;;;;3.07;2.87;;;9.40;99.90;;;;;;5054400;28;20227;-80
2020/12/16 10:26:54;;;;;;;2.67;2.47;;;9.40;99.90;;;;;;5054771;28;20178;-80
2020/12/16 10:29:19;;;;;;;1.43;1.37;;;9.40;99.90;;;;;;5054344;28;20198;-80
2020/12/16 10:31:49;;;;;;;1.27;1.13;;;9.40;99.90;;;;;;5036335;28;20531;-82
2020/12/16 10:34:15;;;;;;;2.97;2.00;;;9.40;99.90;;;;;;5055911;28;20176;-81
2020/12/16 10:36:41;;;;;;;0.70;0.57;;;9.40;99.90;;;;;;5036487;28;20176;-79
2020/12/16 10:39:06;;;;;;;2.23;2.07;;;9.40;99.90;;;;;;5036444;28;20227;-78
2020/12/16 10:41:32;;;;;;;1.47;1.37;;;9.40;99.90;;;;;;5036357;28;20171;-78
2020/12/16 10:43:57;;;;;;;3.77;2.37;;;9.50;99.90;;;;;;5036394;28;20206;-77
2020/12/16 10:46:23;;;;;;;2.33;2.20;;;9.50;99.90;;;;;;5054246;28;20166;-78
2020/12/16 10:48:49;;;;;;;2.60;1.33;;;9.50;99.90;;;;;;5054239;28;20168;-79
2020/12/16 10:51:14;;;;;;;1.27;1.17;;;9.50;99.90;;;;;;5036279;28;20206;-79
2020/12/16 10:53:40;;;;;;;3.00;2.77;;;9.60;99.90;;;;;;5053965;28;20183;-77
2020/12/16 10:56:06;;;;;;;1.97;1.83;;;9.60;99.90;;;;;;5053910;28;20221;-80
2020/12/16 10:58:31;;;;;;;1.63;1.20;;;9.70;99.90;;;;;;5053766;28;20170;-82
2020/12/16 11:00:57;;;;;;;0.40;0.40;;;9.80;99.90;;;;;;5053596;28;20191;-79
2020/12/16 11:03:22;;;;;;;1.20;1.17;;;9.80;99.90;;;;;;5035994;28;20188;-79
2020/12/16 11:05:48;;;;;;;1.33;1.23;;;9.90;99.90;;;;;;5035913;28;20199;-77
2020/12/16 11:08:13;;;;;;;2.43;2.27;;;10.00;99.90;;;;;;5036348;28;20687;-79
2020/12/16 11:10:39;;;;;;;2.03;1.93;;;10.10;99.90;;;;;;5036147;28;20191;-79
2020/12/16 11:13:04;;;;;;;3.30;1.67;;;10.20;99.90;;;;;;5053837;28;20203;-80
2020/12/16 11:15:32;;;;;;;3.23;1.53;;;10.20;99.90;;;;;;5053871;28;20167;-77
2020/12/16 11:17:57;;;;;;;1.50;0.97;;;10.30;99.90;;;;;;5054024;28;20223;-77
2020/12/16 11:20:23;;;;;;;2.33;2.07;;;10.30;99.90;;;;;;5054486;28;20249;-77
2020/12/16 11:22:49;;;;;;;3.43;0.93;;;10.30;99.90;;;;;;5054165;28;20188;-79
2020/12/16 11:25:14;;;;;;;1.50;1.40;;;10.30;99.90;;;;;;5054057;28;20199;-78
2020/12/16 11:27:40;;;;;;;2.47;1.77;;;10.40;99.90;;;;;;5036135;28;20169;-77
2020/12/16 11:30:05;;;;;;;1.33;1.23;;;10.50;99.90;;;;;;5053606;28;20167;-80
2020/12/16 11:32:31;;;;;;;0.83;0.83;;;10.50;99.90;;;;;;5053503;28;20180;-80
2020/12/16 11:34:57;;;;;;;2.17;1.57;;;10.50;99.90;;;;;;5053436;28;20167;-78
2020/12/16 11:37:22;;;;;;;2.27;1.73;;;10.60;99.90;;;;;;5053747;28;20190;-79
2020/12/16 11:39:48;;;;;;;3.33;1.40;;;10.70;99.90;;;;;;5053386;28;20176;-79
2020/12/16 11:42:14;;;;;;;1.60;0.73;;;10.70;99.90;;;;;;5053267;28;20194;-79
2020/12/16 11:44:39;;;;;;;0.90;0.90;;;10.70;99.90;;;;;;5035493;28;20625;-79
2020/12/16 11:47:06;;;;;;;1.80;1.13;;;10.80;99.90;;;;;;5035480;28;20170;-79
2020/12/16 11:49:31;;;;;;;1.27;1.10;;;10.80;99.90;;;;;;5053271;28;20155;-79
2020/12/16 11:51:57;;;;;;;1.73;1.63;;;10.80;99.90;;;;;;5053195;28;20170;-79
2020/12/16 11:54:23;;;;;;;1.60;1.23;;;10.90;99.90;;;;;;5053286;28;20242;-81
2020/12/16 11:56:48;;;;;;;1.80;1.50;;;10.90;99.90;;;;;;5035263;28;20168;-83
2020/12/16 11:59:14;;;;;;;2.27;1.83;;;10.90;99.90;;;;;;5035318;28;20181;-78
2020/12/16 12:01:42;;;;;;;1.53;1.43;;;11.00;99.90;;;;;;5053347;28;20164;-77
2020/12/16 12:04:09;;;;;;;2.20;1.90;;;11.00;99.90;;;;;;5053292;28;20682;-77
2020/12/16 12:06:34;;;;;;;2.07;0.70;;;11.00;99.90;;;;;;5053585;28;20152;-77
2020/12/16 12:09:00;;;;;;;1.60;1.17;;;11.10;99.90;;;;;;5053153;28;20243;-77
2020/12/16 12:11:25;;;;;;;3.33;0.60;;;11.10;99.90;;;;;;5053204;28;20175;-79
2020/12/16 12:13:52;;;;;;;0.97;0.97;;;11.10;99.90;;;;;;5054548;28;20609;-79
2020/12/16 12:16:18;;;;;;;1.40;1.10;;;11.10;99.90;;;;;;5039106;28;20734;-79
2020/12/16 12:18:44;;;;;;;0.77;0.63;;;11.10;99.90;;;;;;5056995;28;20541;-80
2020/12/16 12:21:15;;;;;;;0.97;0.73;;;11.20;99.90;;;;;;5056853;28;20190;-86
2020/12/16 12:23:40;;;;;;;0.87;0.80;;;11.20;99.90;;;;;;5038935;28;20621;-86
2020/12/16 12:26:06;;;;;;;1.10;0.97;;;11.20;99.90;;;;;;5056978;28;20192;-86
2020/12/16 12:28:32;;;;;;;0.73;0.63;;;11.20;99.90;;;;;;5039125;28;20255;-80
2020/12/16 12:30:58;;;;;;;2.20;1.10;;;11.20;99.90;;;;;;5047344;28;20631;-80
2020/12/16 12:33:24;;;;;;;0.90;0.90;;;11.20;99.90;;;;;;5056930;28;20205;-83
2020/12/16 12:35:50;;;;;;;1.57;1.47;;;11.20;99.90;;;;;;5056621;28;20258;-86
2020/12/16 12:38:15;;;;;;;0.77;0.77;;;11.20;99.90;;;;;;5038863;28;20176;-81
2020/12/16 12:40:42;;;;;;;1.07;0.80;;;11.20;99.90;;;;;;5038587;28;20171;-79
2020/12/16 12:43:08;;;;;;;1.83;1.17;;;11.10;99.90;;;;;;5056283;28;20674;-80
2020/12/16 12:45:33;;;;;;;2.57;0.77;;;11.10;99.90;;;;;;5056311;28;20249;-79
2020/12/16 12:48:00;;;;;;;0.53;0.47;;;11.20;99.90;;;;;;5043348;28;20258;-81
2020/12/16 12:50:25;;;;;;;0.83;0.83;;;11.20;99.90;;;;;;5040669;28;20531;-79
2020/12/16 12:52:51;;;;;;;2.80;0.87;;;11.20;99.90;;;;;;5056925;28;20196;-78
2020/12/16 12:55:17;;;;;;;0.57;0.53;;;11.30;99.90;;;;;;5038452;28;20171;-79
2020/12/16 12:57:43;;;;;;;3.20;1.50;;;11.30;99.90;;;;;;5038343;28;20178;-80
2020/12/16 13:00:10;;;;;;;1.07;0.93;;;11.50;99.90;;;;;;5038379;28;20179;-79